sensor_id;sensor_type;location;lat;lon;timestamp;temperature;humidity
61641;HTU21D;62201;49.966;8.342;2022-07-29T00:01:48;23.07;37.87
61641;HTU21D;62201;49.966;8.342;2022-07-29T00:04:14;23.10;37.84
61641;HTU21D;62201;49.966;8.342;2022-07-29T00:06:39;23.05;38.23
61641;HTU21D;62201;49.966;8.342;2022-07-29T00:09:05;23.01;38.11
61641;HTU21D;62201;49.966;8.342;2022-07-29T00:11:30;23.05;38.24
61641;HTU21D;62201;49.966;8.342;2022-07-29T00:13:56;23.07;38.27
61641;HTU21D;62201;49.966;8.342;2022-07-29T00:16:21;23.09;37.70
61641;HTU21D;62201;49.966;8.342;2022-07-29T00:18:47;23.13;37.37
61641;HTU21D;62201;49.966;8.342;2022-07-29T00:21:12;23.13;37.55
61641;HTU21D;62201;49.966;8.342;2022-07-29T00:23:37;23.10;37.52
61641;HTU21D;62201;49.966;8.342;2022-07-29T00:26:03;23.07;37.57
61641;HTU21D;62201;49.966;8.342;2022-07-29T00:28:28;23.10;37.00
61641;HTU21D;62201;49.966;8.342;2022-07-29T00:30:53;23.12;37.11
61641;HTU21D;62201;49.966;8.342;2022-07-29T00:33:19;23.08;37.25
61641;HTU21D;62201;49.966;8.342;2022-07-29T00:35:44;23.05;37.38
61641;HTU21D;62201;49.966;8.342;2022-07-29T00:38:15;23.03;37.40
61641;HTU21D;62201;49.966;8.342;2022-07-29T00:40:41;23.00;37.56
61641;HTU21D;62201;49.966;8.342;2022-07-29T00:43:07;22.99;37.41
61641;HTU21D;62201;49.966;8.342;2022-07-29T00:45:33;22.98;37.46
61641;HTU21D;62201;49.966;8.342;2022-07-29T00:47:58;22.91;37.66
61641;HTU21D;62201;49.966;8.342;2022-07-29T00:50:24;22.87;37.89
61641;HTU21D;62201;49.966;8.342;2022-07-29T00:52:50;22.90;37.54
61641;HTU21D;62201;49.966;8.342;2022-07-29T00:55:16;22.88;37.50
61641;HTU21D;62201;49.966;8.342;2022-07-29T00:57:43;22.86;37.54
61641;HTU21D;62201;49.966;8.342;2022-07-29T01:00:12;22.83;37.68
61641;HTU21D;62201;49.966;8.342;2022-07-29T01:02:37;22.79;37.71
61641;HTU21D;62201;49.966;8.342;2022-07-29T01:05:04;22.82;37.52
61641;HTU21D;62201;49.966;8.342;2022-07-29T01:07:34;22.84;37.26
61641;HTU21D;62201;49.966;8.342;2022-07-29T01:10:03;22.91;36.76
61641;HTU21D;62201;49.966;8.342;2022-07-29T01:12:30;22.96;36.86
61641;HTU21D;62201;49.966;8.342;2022-07-29T01:14:59;22.99;36.45
61641;HTU21D;62201;49.966;8.342;2022-07-29T01:17:33;22.93;36.84
61641;HTU21D;62201;49.966;8.342;2022-07-29T01:23:32;22.87;37.99
61641;HTU21D;62201;49.966;8.342;2022-07-29T01:26:07;22.71;38.05
61641;HTU21D;62201;49.966;8.342;2022-07-29T01:28:45;22.52;39.73
61641;HTU21D;62201;49.966;8.342;2022-07-29T01:31:16;22.35;41.23
61641;HTU21D;62201;49.966;8.342;2022-07-29T01:33:45;22.43;40.07
61641;HTU21D;62201;49.966;8.342;2022-07-29T01:36:17;22.52;39.33
61641;HTU21D;62201;49.966;8.342;2022-07-29T01:38:47;22.54;39.29
61641;HTU21D;62201;49.966;8.342;2022-07-29T01:41:17;22.49;39.87
61641;HTU21D;62201;49.966;8.342;2022-07-29T01:43:53;22.41;40.13
61641;HTU21D;62201;49.966;8.342;2022-07-29T01:46:25;22.32;45.96
61641;HTU21D;62201;49.966;8.342;2022-07-29T01:48:58;21.82;51.27
61641;HTU21D;62201;49.966;8.342;2022-07-29T01:51:32;21.28;53.43
61641;HTU21D;62201;49.966;8.342;2022-07-29T01:56:53;20.96;51.66
61641;HTU21D;62201;49.966;8.342;2022-07-29T01:59:20;21.10;50.56
61641;HTU21D;62201;49.966;8.342;2022-07-29T02:01:47;21.15;50.99
61641;HTU21D;62201;49.966;8.342;2022-07-29T02:04:15;21.09;51.66
61641;HTU21D;62201;49.966;8.342;2022-07-29T02:06:42;20.89;54.85
61641;HTU21D;62201;49.966;8.342;2022-07-29T02:09:10;20.53;56.13
61641;HTU21D;62201;49.966;8.342;2022-07-29T02:11:37;20.30;57.47
61641;HTU21D;62201;49.966;8.342;2022-07-29T02:14:03;20.14;57.93
61641;HTU21D;62201;49.966;8.342;2022-07-29T02:16:31;20.06;59.79
61641;HTU21D;62201;49.966;8.342;2022-07-29T02:18:57;20.07;59.55
61641;HTU21D;62201;49.966;8.342;2022-07-29T02:21:24;20.14;59.76
61641;HTU21D;62201;49.966;8.342;2022-07-29T02:23:53;20.22;58.61
61641;HTU21D;62201;49.966;8.342;2022-07-29T02:26:21;20.30;57.73
61641;HTU21D;62201;49.966;8.342;2022-07-29T02:28:50;20.36;56.88
61641;HTU21D;62201;49.966;8.342;2022-07-29T02:31:18;20.43;55.38
61641;HTU21D;62201;49.966;8.342;2022-07-29T02:33:45;20.51;54.54
61641;HTU21D;62201;49.966;8.342;2022-07-29T02:36:12;20.58;53.55
61641;HTU21D;62201;49.966;8.342;2022-07-29T02:38:40;20.58;53.25
61641;HTU21D;62201;49.966;8.342;2022-07-29T02:41:18;20.60;53.07
61641;HTU21D;62201;49.966;8.342;2022-07-29T02:43:47;20.55;53.23
61641;HTU21D;62201;49.966;8.342;2022-07-29T02:46:19;20.49;54.60
61641;HTU21D;62201;49.966;8.342;2022-07-29T02:48:57;20.40;55.33
61641;HTU21D;62201;49.966;8.342;2022-07-29T02:51:28;20.33;55.08
61641;HTU21D;62201;49.966;8.342;2022-07-29T02:53:56;20.41;53.97
61641;HTU21D;62201;49.966;8.342;2022-07-29T02:56:25;20.39;52.17
61641;HTU21D;62201;49.966;8.342;2022-07-29T02:58:58;20.44;50.56
61641;HTU21D;62201;49.966;8.342;2022-07-29T03:01:25;20.51;49.05
61641;HTU21D;62201;49.966;8.342;2022-07-29T03:03:54;20.54;49.98
61641;HTU21D;62201;49.966;8.342;2022-07-29T03:06:22;20.62;48.05
61641;HTU21D;62201;49.966;8.342;2022-07-29T03:08:48;20.64;47.64
61641;HTU21D;62201;49.966;8.342;2022-07-29T03:11:15;20.72;47.50
61641;HTU21D;62201;49.966;8.342;2022-07-29T03:13:42;20.73;47.15
61641;HTU21D;62201;49.966;8.342;2022-07-29T03:16:08;20.69;47.26
61641;HTU21D;62201;49.966;8.342;2022-07-29T03:18:34;20.68;47.12
61641;HTU21D;62201;49.966;8.342;2022-07-29T03:21:01;20.62;47.25
61641;HTU21D;62201;49.966;8.342;2022-07-29T03:23:27;20.60;47.35
61641;HTU21D;62201;49.966;8.342;2022-07-29T03:25:53;20.60;47.50
61641;HTU21D;62201;49.966;8.342;2022-07-29T03:28:19;20.63;47.47
61641;HTU21D;62201;49.966;8.342;2022-07-29T03:30:45;20.66;47.48
61641;HTU21D;62201;49.966;8.342;2022-07-29T03:33:10;20.69;47.67
61641;HTU21D;62201;49.966;8.342;2022-07-29T03:35:36;20.71;47.79
61641;HTU21D;62201;49.966;8.342;2022-07-29T03:38:01;20.70;48.08
61641;HTU21D;62201;49.966;8.342;2022-07-29T03:40:59;20.64;48.30
61641;HTU21D;62201;49.966;8.342;2022-07-29T03:43:30;20.57;48.70
61641;HTU21D;62201;49.966;8.342;2022-07-29T03:45:57;20.50;48.77
61641;HTU21D;62201;49.966;8.342;2022-07-29T03:48:25;20.45;49.09
61641;HTU21D;62201;49.966;8.342;2022-07-29T03:50:51;20.41;49.51
61641;HTU21D;62201;49.966;8.342;2022-07-29T03:53:17;20.36;49.92
61641;HTU21D;62201;49.966;8.342;2022-07-29T03:55:45;20.34;50.15
61641;HTU21D;62201;49.966;8.342;2022-07-29T03:58:13;20.34;50.39
61641;HTU21D;62201;49.966;8.342;2022-07-29T04:00:38;20.32;50.55
61641;HTU21D;62201;49.966;8.342;2022-07-29T04:03:04;20.30;50.72
61641;HTU21D;62201;49.966;8.342;2022-07-29T04:05:30;20.27;50.71
61641;HTU21D;62201;49.966;8.342;2022-07-29T04:07:55;20.21;51.14
61641;HTU21D;62201;49.966;8.342;2022-07-29T04:10:21;20.20;51.09
61641;HTU21D;62201;49.966;8.342;2022-07-29T04:12:48;20.17;51.30
61641;HTU21D;62201;49.966;8.342;2022-07-29T04:15:13;20.17;51.24
61641;HTU21D;62201;49.966;8.342;2022-07-29T04:17:39;20.17;51.51
61641;HTU21D;62201;49.966;8.342;2022-07-29T04:20:04;20.14;51.34
61641;HTU21D;62201;49.966;8.342;2022-07-29T04:22:30;20.12;51.39
61641;HTU21D;62201;49.966;8.342;2022-07-29T04:24:55;20.12;51.62
61641;HTU21D;62201;49.966;8.342;2022-07-29T04:27:21;20.10;51.53
61641;HTU21D;62201;49.966;8.342;2022-07-29T04:29:46;20.12;52.12
61641;HTU21D;62201;49.966;8.342;2022-07-29T04:32:12;20.09;51.90
61641;HTU21D;62201;49.966;8.342;2022-07-29T04:34:37;20.12;52.62
61641;HTU21D;62201;49.966;8.342;2022-07-29T04:37:03;20.11;52.14
61641;HTU21D;62201;49.966;8.342;2022-07-29T04:39:28;20.10;52.63
61641;HTU21D;62201;49.966;8.342;2022-07-29T04:41:53;20.11;53.07
61641;HTU21D;62201;49.966;8.342;2022-07-29T04:44:19;20.11;53.14
61641;HTU21D;62201;49.966;8.342;2022-07-29T04:46:44;20.12;53.37
61641;HTU21D;62201;49.966;8.342;2022-07-29T04:49:10;20.14;53.43
61641;HTU21D;62201;49.966;8.342;2022-07-29T04:51:35;20.17;53.53
61641;HTU21D;62201;49.966;8.342;2022-07-29T04:54:00;20.18;53.44
61641;HTU21D;62201;49.966;8.342;2022-07-29T04:56:26;20.21;53.80
61641;HTU21D;62201;49.966;8.342;2022-07-29T04:58:51;20.21;54.09
61641;HTU21D;62201;49.966;8.342;2022-07-29T05:01:17;20.25;54.61
61641;HTU21D;62201;49.966;8.342;2022-07-29T05:03:42;20.31;54.48
61641;HTU21D;62201;49.966;8.342;2022-07-29T05:06:08;20.37;54.68
61641;HTU21D;62201;49.966;8.342;2022-07-29T05:08:33;20.45;54.26
61641;HTU21D;62201;49.966;8.342;2022-07-29T05:10:58;20.56;54.63
61641;HTU21D;62201;49.966;8.342;2022-07-29T05:13:24;20.58;54.51
61641;HTU21D;62201;49.966;8.342;2022-07-29T05:15:49;20.65;54.26
61641;HTU21D;62201;49.966;8.342;2022-07-29T05:18:14;20.72;54.46
61641;HTU21D;62201;49.966;8.342;2022-07-29T05:20:40;20.80;54.35
61641;HTU21D;62201;49.966;8.342;2022-07-29T05:23:06;20.87;54.46
61641;HTU21D;62201;49.966;8.342;2022-07-29T05:25:31;21.03;54.29
61641;HTU21D;62201;49.966;8.342;2022-07-29T05:27:56;21.22;53.76
61641;HTU21D;62201;49.966;8.342;2022-07-29T05:30:22;21.23;53.77
61641;HTU21D;62201;49.966;8.342;2022-07-29T05:32:48;21.40;53.36
61641;HTU21D;62201;49.966;8.342;2022-07-29T05:35:14;21.60;52.91
61641;HTU21D;62201;49.966;8.342;2022-07-29T05:37:39;21.82;52.33
61641;HTU21D;62201;49.966;8.342;2022-07-29T05:40:06;21.95;52.26
61641;HTU21D;62201;49.966;8.342;2022-07-29T05:42:32;21.94;52.05
61641;HTU21D;62201;49.966;8.342;2022-07-29T05:44:58;22.03;51.93
61641;HTU21D;62201;49.966;8.342;2022-07-29T05:47:23;22.05;51.98
61641;HTU21D;62201;49.966;8.342;2022-07-29T05:49:49;22.06;51.96
61641;HTU21D;62201;49.966;8.342;2022-07-29T05:52:15;22.20;51.57
61641;HTU21D;62201;49.966;8.342;2022-07-29T05:54:41;22.10;51.17
61641;HTU21D;62201;49.966;8.342;2022-07-29T05:57:06;22.14;51.10
61641;HTU21D;62201;49.966;8.342;2022-07-29T05:59:38;22.26;49.76
61641;HTU21D;62201;49.966;8.342;2022-07-29T06:02:04;22.55;50.22
61641;HTU21D;62201;49.966;8.342;2022-07-29T06:04:33;22.47;50.39
61641;HTU21D;62201;49.966;8.342;2022-07-29T06:06:59;22.80;49.63
61641;HTU21D;62201;49.966;8.342;2022-07-29T06:09:24;22.86;49.18
61641;HTU21D;62201;49.966;8.342;2022-07-29T06:11:51;22.76;48.13
61641;HTU21D;62201;49.966;8.342;2022-07-29T06:14:17;22.95;48.12
61641;HTU21D;62201;49.966;8.342;2022-07-29T06:16:42;23.20;47.36
61641;HTU21D;62201;49.966;8.342;2022-07-29T06:19:08;23.46;46.73
61641;HTU21D;62201;49.966;8.342;2022-07-29T06:21:34;23.51;45.51
61641;HTU21D;62201;49.966;8.342;2022-07-29T06:23:59;23.41;45.69
61641;HTU21D;62201;49.966;8.342;2022-07-29T06:26:25;23.54;45.11
61641;HTU21D;62201;49.966;8.342;2022-07-29T06:28:50;23.65;44.94
61641;HTU21D;62201;49.966;8.342;2022-07-29T06:31:15;23.74;44.65
61641;HTU21D;62201;49.966;8.342;2022-07-29T06:33:41;23.65;43.74
61641;HTU21D;62201;49.966;8.342;2022-07-29T06:36:06;23.67;43.68
61641;HTU21D;62201;49.966;8.342;2022-07-29T06:38:33;24.00;42.22
61641;HTU21D;62201;49.966;8.342;2022-07-29T06:40:58;23.88;41.51
61641;HTU21D;62201;49.966;8.342;2022-07-29T06:43:37;23.74;41.58
61641;HTU21D;62201;49.966;8.342;2022-07-29T06:46:06;23.71;41.62
61641;HTU21D;62201;49.966;8.342;2022-07-29T06:48:32;23.71;40.59
61641;HTU21D;62201;49.966;8.342;2022-07-29T06:50:59;23.79;40.17
61641;HTU21D;62201;49.966;8.342;2022-07-29T06:53:24;24.13;40.20
61641;HTU21D;62201;49.966;8.342;2022-07-29T06:55:50;24.28;39.49
61641;HTU21D;62201;49.966;8.342;2022-07-29T06:58:15;24.21;39.35
61641;HTU21D;62201;49.966;8.342;2022-07-29T07:00:43;24.35;39.48
61641;HTU21D;62201;49.966;8.342;2022-07-29T07:03:09;24.17;39.76
61641;HTU21D;62201;49.966;8.342;2022-07-29T07:05:34;24.19;39.49
61641;HTU21D;62201;49.966;8.342;2022-07-29T07:08:00;24.34;39.49
61641;HTU21D;62201;49.966;8.342;2022-07-29T07:10:25;24.56;39.27
61641;HTU21D;62201;49.966;8.342;2022-07-29T07:12:50;24.57;38.79
61641;HTU21D;62201;49.966;8.342;2022-07-29T07:15:16;24.56;38.75
61641;HTU21D;62201;49.966;8.342;2022-07-29T07:17:41;24.72;38.59
61641;HTU21D;62201;49.966;8.342;2022-07-29T07:20:07;24.71;38.62
61641;HTU21D;62201;49.966;8.342;2022-07-29T07:22:32;24.77;38.33
61641;HTU21D;62201;49.966;8.342;2022-07-29T07:24:58;25.02;38.06
61641;HTU21D;62201;49.966;8.342;2022-07-29T07:27:23;25.19;37.42
61641;HTU21D;62201;49.966;8.342;2022-07-29T07:29:48;25.29;37.43
61641;HTU21D;62201;49.966;8.342;2022-07-29T07:32:14;25.49;36.64
61641;HTU21D;62201;49.966;8.342;2022-07-29T07:34:42;25.57;36.53
61641;HTU21D;62201;49.966;8.342;2022-07-29T07:37:07;25.82;36.28
61641;HTU21D;62201;49.966;8.342;2022-07-29T07:39:33;26.06;35.61
61641;HTU21D;62201;49.966;8.342;2022-07-29T07:41:59;25.84;36.07
61641;HTU21D;62201;49.966;8.342;2022-07-29T07:44:24;25.78;35.92
61641;HTU21D;62201;49.966;8.342;2022-07-29T07:46:49;25.97;35.89
61641;HTU21D;62201;49.966;8.342;2022-07-29T07:49:15;26.02;35.73
61641;HTU21D;62201;49.966;8.342;2022-07-29T07:51:40;25.76;36.06
61641;HTU21D;62201;49.966;8.342;2022-07-29T07:54:05;25.95;36.14
61641;HTU21D;62201;49.966;8.342;2022-07-29T07:56:31;26.31;35.29
61641;HTU21D;62201;49.966;8.342;2022-07-29T07:58:56;26.47;34.33
61641;HTU21D;62201;49.966;8.342;2022-07-29T08:01:21;26.42;34.48
61641;HTU21D;62201;49.966;8.342;2022-07-29T08:03:49;26.06;35.36
61641;HTU21D;62201;49.966;8.342;2022-07-29T08:06:14;26.24;35.15
61641;HTU21D;62201;49.966;8.342;2022-07-29T08:08:40;26.42;34.97
61641;HTU21D;62201;49.966;8.342;2022-07-29T08:11:05;26.64;34.40
61641;HTU21D;62201;49.966;8.342;2022-07-29T08:13:31;26.47;34.28
61641;HTU21D;62201;49.966;8.342;2022-07-29T08:15:58;26.32;35.21
61641;HTU21D;62201;49.966;8.342;2022-07-29T08:18:26;26.41;34.89
61641;HTU21D;62201;49.966;8.342;2022-07-29T08:20:51;26.55;34.73
61641;HTU21D;62201;49.966;8.342;2022-07-29T08:23:17;26.87;34.28
61641;HTU21D;62201;49.966;8.342;2022-07-29T08:25:44;26.72;34.38
61641;HTU21D;62201;49.966;8.342;2022-07-29T08:28:10;26.84;34.65
61641;HTU21D;62201;49.966;8.342;2022-07-29T08:30:35;26.70;34.46
61641;HTU21D;62201;49.966;8.342;2022-07-29T08:33:00;26.90;34.42
61641;HTU21D;62201;49.966;8.342;2022-07-29T08:35:26;27.10;33.55
61641;HTU21D;62201;49.966;8.342;2022-07-29T08:37:52;26.86;34.30
61641;HTU21D;62201;49.966;8.342;2022-07-29T08:40:19;26.99;33.79
61641;HTU21D;62201;49.966;8.342;2022-07-29T08:42:45;27.32;33.34
61641;HTU21D;62201;49.966;8.342;2022-07-29T08:45:11;27.34;33.27
61641;HTU21D;62201;49.966;8.342;2022-07-29T08:47:38;27.24;33.51
61641;HTU21D;62201;49.966;8.342;2022-07-29T08:50:06;27.15;33.96
61641;HTU21D;62201;49.966;8.342;2022-07-29T08:52:33;27.28;33.59
61641;HTU21D;62201;49.966;8.342;2022-07-29T08:55:01;27.69;32.98
61641;HTU21D;62201;49.966;8.342;2022-07-29T08:57:27;27.93;32.83
61641;HTU21D;62201;49.966;8.342;2022-07-29T08:59:54;28.11;32.60
61641;HTU21D;62201;49.966;8.342;2022-07-29T09:02:21;27.93;32.93
61641;HTU21D;62201;49.966;8.342;2022-07-29T09:04:47;27.55;33.38
61641;HTU21D;62201;49.966;8.342;2022-07-29T09:07:16;27.55;33.54
61641;HTU21D;62201;49.966;8.342;2022-07-29T09:09:42;27.94;32.79
61641;HTU21D;62201;49.966;8.342;2022-07-29T09:12:09;28.09;32.62
61641;HTU21D;62201;49.966;8.342;2022-07-29T09:14:39;27.94;32.75
61641;HTU21D;62201;49.966;8.342;2022-07-29T09:17:06;28.38;32.44
61641;HTU21D;62201;49.966;8.342;2022-07-29T09:19:33;29.00;31.43
61641;HTU21D;62201;49.966;8.342;2022-07-29T09:22:04;29.26;30.73
61641;HTU21D;62201;49.966;8.342;2022-07-29T09:27:00;29.83;30.13
61641;HTU21D;62201;49.966;8.342;2022-07-29T09:29:25;30.10;29.94
61641;HTU21D;62201;49.966;8.342;2022-07-29T09:31:53;30.01;30.32
61641;HTU21D;62201;49.966;8.342;2022-07-29T09:34:27;29.58;30.50
61641;HTU21D;62201;49.966;8.342;2022-07-29T09:36:54;29.37;31.36
61641;HTU21D;62201;49.966;8.342;2022-07-29T09:39:46;29.50;31.19
61641;HTU21D;62201;49.966;8.342;2022-07-29T09:42:12;29.67;30.92
61641;HTU21D;62201;49.966;8.342;2022-07-29T09:44:56;29.76;31.42
61641;HTU21D;62201;49.966;8.342;2022-07-29T09:47:21;29.39;30.66
61641;HTU21D;62201;49.966;8.342;2022-07-29T09:49:54;29.14;31.45
61641;HTU21D;62201;49.966;8.342;2022-07-29T09:52:20;29.44;31.18
61641;HTU21D;62201;49.966;8.342;2022-07-29T09:54:46;29.38;30.54
61641;HTU21D;62201;49.966;8.342;2022-07-29T09:57:26;29.88;29.82
61641;HTU21D;62201;49.966;8.342;2022-07-29T10:00:05;30.07;29.51
61641;HTU21D;62201;49.966;8.342;2022-07-29T10:02:34;30.34;29.06
61641;HTU21D;62201;49.966;8.342;2022-07-29T10:05:01;29.96;29.67
61641;HTU21D;62201;49.966;8.342;2022-07-29T10:07:47;30.08;29.36
61641;HTU21D;62201;49.966;8.342;2022-07-29T10:10:20;30.24;29.73
61641;HTU21D;62201;49.966;8.342;2022-07-29T10:12:50;30.19;29.22
61641;HTU21D;62201;49.966;8.342;2022-07-29T10:15:17;30.11;29.61
61641;HTU21D;62201;49.966;8.342;2022-07-29T10:17:43;30.47;29.02
61641;HTU21D;62201;49.966;8.342;2022-07-29T10:20:09;30.41;29.24
61641;HTU21D;62201;49.966;8.342;2022-07-29T10:22:35;30.10;30.18
61641;HTU21D;62201;49.966;8.342;2022-07-29T10:25:01;30.67;29.64
61641;HTU21D;62201;49.966;8.342;2022-07-29T10:27:26;31.13;28.92
61641;HTU21D;62201;49.966;8.342;2022-07-29T10:29:53;30.94;28.97
61641;HTU21D;62201;49.966;8.342;2022-07-29T10:32:46;30.79;29.05
61641;HTU21D;62201;49.966;8.342;2022-07-29T10:38:19;31.09;29.65
61641;HTU21D;62201;49.966;8.342;2022-07-29T10:43:45;32.01;28.42
61641;HTU21D;62201;49.966;8.342;2022-07-29T10:46:11;32.31;27.67
61641;HTU21D;62201;49.966;8.342;2022-07-29T10:52:07;31.70;28.11
61641;HTU21D;62201;49.966;8.342;2022-07-29T10:59:42;31.56;28.87
61641;HTU21D;62201;49.966;8.342;2022-07-29T11:04:59;31.69;29.26
61641;HTU21D;62201;49.966;8.342;2022-07-29T11:07:27;31.63;29.22
61641;HTU21D;62201;49.966;8.342;2022-07-29T11:15:12;31.40;29.20
61641;HTU21D;62201;49.966;8.342;2022-07-29T11:20:42;30.66;30.46
61641;HTU21D;62201;49.966;8.342;2022-07-29T11:23:30;30.86;30.60
61641;HTU21D;62201;49.966;8.342;2022-07-29T11:31:19;31.96;28.68
61641;HTU21D;62201;49.966;8.342;2022-07-29T11:33:45;32.72;27.44
61641;HTU21D;62201;49.966;8.342;2022-07-29T11:36:12;32.86;26.94
61641;HTU21D;62201;49.966;8.342;2022-07-29T11:38:38;32.91;27.26
61641;HTU21D;62201;49.966;8.342;2022-07-29T11:41:24;33.38;26.59
61641;HTU21D;62201;49.966;8.342;2022-07-29T11:43:51;33.35;26.03
61641;HTU21D;62201;49.966;8.342;2022-07-29T11:46:47;33.16;26.75
61641;HTU21D;62201;49.966;8.342;2022-07-29T11:49:19;33.35;25.96
61641;HTU21D;62201;49.966;8.342;2022-07-29T11:51:50;33.60;25.79
61641;HTU21D;62201;49.966;8.342;2022-07-29T11:54:21;33.89;25.05
61641;HTU21D;62201;49.966;8.342;2022-07-29T11:56:49;34.19;25.00
61641;HTU21D;62201;49.966;8.342;2022-07-29T11:59:15;34.78;24.14
61641;HTU21D;62201;49.966;8.342;2022-07-29T12:01:52;34.38;25.39
61641;HTU21D;62201;49.966;8.342;2022-07-29T12:04:17;34.60;24.58
61641;HTU21D;62201;49.966;8.342;2022-07-29T12:06:43;34.48;23.88
61641;HTU21D;62201;49.966;8.342;2022-07-29T12:09:08;34.23;24.23
61641;HTU21D;62201;49.966;8.342;2022-07-29T12:11:34;35.03;23.39
61641;HTU21D;62201;49.966;8.342;2022-07-29T12:13:59;35.66;22.85
61641;HTU21D;62201;49.966;8.342;2022-07-29T12:16:35;34.97;23.66
61641;HTU21D;62201;49.966;8.342;2022-07-29T12:19:02;34.89;23.54
61641;HTU21D;62201;49.966;8.342;2022-07-29T12:21:47;34.95;23.33
61641;HTU21D;62201;49.966;8.342;2022-07-29T12:24:13;34.76;23.60
61641;HTU21D;62201;49.966;8.342;2022-07-29T12:26:56;34.52;23.97
61641;HTU21D;62201;49.966;8.342;2022-07-29T12:29:21;34.29;24.23
61641;HTU21D;62201;49.966;8.342;2022-07-29T12:31:51;34.25;23.66
61641;HTU21D;62201;49.966;8.342;2022-07-29T12:34:20;34.14;23.94
61641;HTU21D;62201;49.966;8.342;2022-07-29T12:36:46;34.26;23.95
61641;HTU21D;62201;49.966;8.342;2022-07-29T12:39:11;34.31;24.11
61641;HTU21D;62201;49.966;8.342;2022-07-29T12:41:38;34.46;23.89
61641;HTU21D;62201;49.966;8.342;2022-07-29T12:44:04;34.42;24.22
61641;HTU21D;62201;49.966;8.342;2022-07-29T12:46:29;34.90;23.66
61641;HTU21D;62201;49.966;8.342;2022-07-29T12:48:55;34.67;23.39
61641;HTU21D;62201;49.966;8.342;2022-07-29T12:51:32;34.70;23.94
61641;HTU21D;62201;49.966;8.342;2022-07-29T12:54:09;34.95;23.28
61641;HTU21D;62201;49.966;8.342;2022-07-29T12:56:36;34.81;23.46
61641;HTU21D;62201;49.966;8.342;2022-07-29T12:59:15;34.92;23.27
61641;HTU21D;62201;49.966;8.342;2022-07-29T13:01:40;34.91;22.86
61641;HTU21D;62201;49.966;8.342;2022-07-29T13:04:06;34.63;23.56
61641;HTU21D;62201;49.966;8.342;2022-07-29T13:09:08;34.96;22.80
61641;HTU21D;62201;49.966;8.342;2022-07-29T13:11:42;33.83;24.53
61641;HTU21D;62201;49.966;8.342;2022-07-29T13:14:10;33.04;25.23
61641;HTU21D;62201;49.966;8.342;2022-07-29T13:17:00;32.56;26.10
61641;HTU21D;62201;49.966;8.342;2022-07-29T13:19:42;32.26;27.31
61641;HTU21D;62201;49.966;8.342;2022-07-29T13:22:19;32.49;27.68
61641;HTU21D;62201;49.966;8.342;2022-07-29T13:25:11;33.25;25.64
61641;HTU21D;62201;49.966;8.342;2022-07-29T13:27:38;32.93;25.95
61641;HTU21D;62201;49.966;8.342;2022-07-29T13:30:07;33.07;25.59
61641;HTU21D;62201;49.966;8.342;2022-07-29T13:32:33;33.60;24.98
61641;HTU21D;62201;49.966;8.342;2022-07-29T13:35:05;34.18;24.23
61641;HTU21D;62201;49.966;8.342;2022-07-29T13:37:32;34.71;23.95
61641;HTU21D;62201;49.966;8.342;2022-07-29T13:39:59;34.79;23.59
61641;HTU21D;62201;49.966;8.342;2022-07-29T13:42:25;34.64;23.50
61641;HTU21D;62201;49.966;8.342;2022-07-29T13:44:51;34.27;23.62
61641;HTU21D;62201;49.966;8.342;2022-07-29T13:47:20;34.07;24.46
61641;HTU21D;62201;49.966;8.342;2022-07-29T13:49:45;33.43;25.08
61641;HTU21D;62201;49.966;8.342;2022-07-29T13:52:11;32.19;28.85
61641;HTU21D;62201;49.966;8.342;2022-07-29T13:54:36;31.48;30.51
61641;HTU21D;62201;49.966;8.342;2022-07-29T13:57:04;30.92;31.04
61641;HTU21D;62201;49.966;8.342;2022-07-29T13:59:29;31.06;30.92
61641;HTU21D;62201;49.966;8.342;2022-07-29T14:01:54;30.63;31.96
61641;HTU21D;62201;49.966;8.342;2022-07-29T14:04:20;30.49;32.41
61641;HTU21D;62201;49.966;8.342;2022-07-29T14:06:46;29.96;33.56
61641;HTU21D;62201;49.966;8.342;2022-07-29T14:09:11;30.04;34.18
61641;HTU21D;62201;49.966;8.342;2022-07-29T14:11:37;29.91;34.75
61641;HTU21D;62201;49.966;8.342;2022-07-29T14:14:03;29.70;36.00
61641;HTU21D;62201;49.966;8.342;2022-07-29T14:16:29;29.43;36.57
61641;HTU21D;62201;49.966;8.342;2022-07-29T14:18:54;29.15;37.15
61641;HTU21D;62201;49.966;8.342;2022-07-29T14:21:19;28.97;36.88
61641;HTU21D;62201;49.966;8.342;2022-07-29T14:23:45;29.05;36.51
61641;HTU21D;62201;49.966;8.342;2022-07-29T14:26:10;29.15;36.50
61641;HTU21D;62201;49.966;8.342;2022-07-29T14:28:36;28.86;37.69
61641;HTU21D;62201;49.966;8.342;2022-07-29T14:31:01;28.70;38.30
61641;HTU21D;62201;49.966;8.342;2022-07-29T14:33:27;28.83;37.82
61641;HTU21D;62201;49.966;8.342;2022-07-29T14:35:52;28.76;38.04
61641;HTU21D;62201;49.966;8.342;2022-07-29T14:38:17;28.91;37.33
61641;HTU21D;62201;49.966;8.342;2022-07-29T14:40:43;28.90;36.63
61641;HTU21D;62201;49.966;8.342;2022-07-29T14:43:08;28.54;37.50
61641;HTU21D;62201;49.966;8.342;2022-07-29T14:45:33;28.34;38.30
61641;HTU21D;62201;49.966;8.342;2022-07-29T14:47:59;28.24;39.13
61641;HTU21D;62201;49.966;8.342;2022-07-29T14:50:25;28.15;39.55
61641;HTU21D;62201;49.966;8.342;2022-07-29T14:52:51;28.08;39.88
61641;HTU21D;62201;49.966;8.342;2022-07-29T14:55:17;28.28;39.65
61641;HTU21D;62201;49.966;8.342;2022-07-29T14:57:42;28.21;39.51
61641;HTU21D;62201;49.966;8.342;2022-07-29T15:00:08;28.35;38.71
61641;HTU21D;62201;49.966;8.342;2022-07-29T15:02:34;28.41;38.99
61641;HTU21D;62201;49.966;8.342;2022-07-29T15:04:59;28.55;38.80
61641;HTU21D;62201;49.966;8.342;2022-07-29T15:07:25;28.60;38.98
61641;HTU21D;62201;49.966;8.342;2022-07-29T15:09:50;28.79;38.75
61641;HTU21D;62201;49.966;8.342;2022-07-29T15:12:16;28.83;38.70
61641;HTU21D;62201;49.966;8.342;2022-07-29T15:14:42;28.67;39.20
61641;HTU21D;62201;49.966;8.342;2022-07-29T15:17:07;28.64;39.33
61641;HTU21D;62201;49.966;8.342;2022-07-29T15:19:32;28.41;39.04
61641;HTU21D;62201;49.966;8.342;2022-07-29T15:21:58;28.24;39.27
61641;HTU21D;62201;49.966;8.342;2022-07-29T15:24:23;28.25;39.82
61641;HTU21D;62201;49.966;8.342;2022-07-29T15:26:49;27.73;43.80
61641;HTU21D;62201;49.966;8.342;2022-07-29T15:29:14;27.44;45.21
61641;HTU21D;62201;49.966;8.342;2022-07-29T15:31:40;26.95;44.82
61641;HTU21D;62201;49.966;8.342;2022-07-29T15:34:05;26.76;45.03
61641;HTU21D;62201;49.966;8.342;2022-07-29T15:36:31;26.68;45.11
61641;HTU21D;62201;49.966;8.342;2022-07-29T15:38:56;26.52;45.07
61641;HTU21D;62201;49.966;8.342;2022-07-29T15:41:22;26.56;44.48
61641;HTU21D;62201;49.966;8.342;2022-07-29T15:43:47;26.65;42.94
61641;HTU21D;62201;49.966;8.342;2022-07-29T15:46:15;26.62;42.81
61641;HTU21D;62201;49.966;8.342;2022-07-29T15:48:59;26.65;42.19
61641;HTU21D;62201;49.966;8.342;2022-07-29T15:51:24;26.62;42.19
61641;HTU21D;62201;49.966;8.342;2022-07-29T15:53:50;26.57;41.61
61641;HTU21D;62201;49.966;8.342;2022-07-29T15:56:15;26.50;41.23
61641;HTU21D;62201;49.966;8.342;2022-07-29T15:58:41;26.32;41.85
61641;HTU21D;62201;49.966;8.342;2022-07-29T16:01:07;26.33;41.68